Time;durP1;ratioP1;P1;durP2;ratioP2;P2;SDS_P1;SDS_P2;PMS_P1;PMS_P2;Temp;Humidity;BMP_temperature;BMP_pressure;BME280_temperature;BME280_humidity;BME280_pressure;Samples;Min_cycle;Max_cycle;Signal;HPM_P1;HPM_P2
2022/06/16 00:00:47;;;;;;;7.32;4.13;;;13.60;99.90;;;;;;6129208;29;20062;-68
2022/06/16 00:03:49;;;;;;;;;;;13.60;99.90;;;;;;6147633;29;20051;-69
2022/06/16 00:06:51;;;;;;;10.52;4.47;;;13.60;99.90;;;;;;6150319;28;20298;-69
2022/06/16 00:09:52;;;;;;;9.18;4.50;;;13.50;99.90;;;;;;6149408;29;20058;-69
2022/06/16 00:12:54;;;;;;;8.65;4.90;;;13.50;99.90;;;;;;6152353;28;20043;-69
2022/06/16 00:15:58;;;;;;;7.90;4.50;;;13.50;99.90;;;;;;6145678;28;20051;-69
2022/06/16 00:19:00;;;;;;;8.52;4.88;;;13.40;99.90;;;;;;6149394;28;20058;-69
2022/06/16 00:22:02;;;;;;;9.20;5.53;;;13.40;99.90;;;;;;6150533;29;20503;-69
2022/06/16 00:25:06;;;;;;;7.63;4.82;;;13.40;99.90;;;;;;6148988;28;20062;-69
2022/06/16 00:28:08;;;;;;;8.70;5.53;;;13.40;99.90;;;;;;6151314;28;20126;-69
2022/06/16 00:31:13;;;;;;;8.73;5.40;;;13.40;99.90;;;;;;6149872;28;20066;-69
2022/06/16 00:34:15;;;;;;;10.25;5.50;;;13.30;99.90;;;;;;6137942;29;20051;-69
2022/06/16 00:37:17;;;;;;;10.55;5.80;;;13.30;99.90;;;;;;6150497;29;20055;-69
2022/06/16 00:40:19;;;;;;;8.25;5.32;;;13.20;99.90;;;;;;6147442;28;20408;-69
2022/06/16 00:43:21;;;;;;;9.52;5.25;;;13.20;99.90;;;;;;6128355;29;20047;-69
2022/06/16 00:46:24;;;;;;;14.50;5.68;;;13.20;99.90;;;;;;6141771;28;20507;-68
2022/06/16 00:49:28;;;;;;;8.20;5.25;;;13.20;99.90;;;;;;6138164;29;20511;-69
2022/06/16 00:52:33;;;;;;;8.18;5.55;;;13.20;99.90;;;;;;6153270;28;20047;-68
2022/06/16 00:55:36;;;;;;;9.82;6.30;;;13.10;99.90;;;;;;6144720;28;20071;-69
2022/06/16 00:58:41;;;;;;;12.48;6.10;;;13.00;99.90;;;;;;6138382;29;20059;-68
2022/06/16 01:01:45;;;;;;;11.85;5.95;;;13.00;99.90;;;;;;6150413;29;20133;-69
2022/06/16 01:04:53;;;;;;;11.00;6.32;;;12.90;99.90;;;;;;6144031;28;20058;-68
2022/06/16 01:07:58;;;;;;;11.52;5.93;;;13.00;99.90;;;;;;6146645;28;20051;-68
2022/06/16 01:11:10;;;;;;;11.23;6.50;;;13.00;99.90;;;;;;6150525;28;20061;-69
2022/06/16 01:14:19;;;;;;;10.43;5.88;;;13.00;99.90;;;;;;6145130;28;20058;-69
2022/06/16 01:17:30;;;;;;;9.57;6.80;;;12.90;99.90;;;;;;6145928;28;20051;-69
2022/06/16 01:20:40;;;;;;;11.95;6.28;;;12.90;99.90;;;;;;6149405;28;20048;-69
2022/06/16 01:24:25;;;;;;;9.75;6.15;;;12.80;99.90;;;;;;6144330;28;20058;-68
2022/06/16 01:27:52;;;;;;;13.32;6.57;;;12.80;99.90;;;;;;6158866;28;20043;-68
2022/06/16 01:31:02;;;;;;;11.13;6.43;;;12.80;99.90;;;;;;6149570;29;20058;-68
2022/06/16 01:34:09;;;;;;;11.20;6.30;;;12.80;99.90;;;;;;6149840;28;20046;-68
2022/06/16 01:37:16;;;;;;;10.52;6.57;;;12.80;99.90;;;;;;6147555;29;20126;-69
2022/06/16 01:40:23;;;;;;;8.98;6.47;;;12.80;99.90;;;;;;6138085;29;20537;-69
2022/06/16 01:43:31;;;;;;;10.45;6.68;;;12.80;99.90;;;;;;6126084;29;20070;-68
2022/06/16 01:46:37;;;;;;;12.10;6.78;;;12.70;99.90;;;;;;6146113;28;20055;-68
2022/06/16 01:49:48;;;;;;;12.52;7.00;;;12.70;99.90;;;;;;6145861;29;20055;-68
2022/06/16 01:52:55;;;;;;;11.32;6.50;;;12.70;99.90;;;;;;6147704;28;20401;-69
2022/06/16 01:56:03;;;;;;;11.10;6.85;;;12.60;99.90;;;;;;6147803;29;20051;-68
2022/06/16 01:59:10;;;;;;;12.00;6.72;;;12.60;99.90;;;;;;6148439;29;20183;-69
2022/06/16 02:02:16;;;;;;;9.70;6.53;;;12.60;99.90;;;;;;6148579;28;20094;-69
2022/06/16 02:05:23;;;;;;;9.85;7.03;;;12.50;99.90;;;;;;6147084;28;20436;-69
2022/06/16 02:08:29;;;;;;;11.23;6.55;;;12.50;99.90;;;;;;6146066;28;20494;-68
2022/06/16 02:11:33;;;;;;;13.07;7.45;;;12.50;99.90;;;;;;6135590;29;20054;-69
2022/06/16 02:14:40;;;;;;;12.35;6.28;;;12.50;99.90;;;;;;6144849;28;20515;-69
2022/06/16 02:17:44;;;;;;;13.05;7.38;;;12.50;99.90;;;;;;6149130;28;20051;-69
2022/06/16 02:20:53;;;;;;;10.50;6.78;;;12.50;99.90;;;;;;6148070;29;20405;-68
2022/06/16 02:23:57;;;;;;;12.13;7.35;;;12.50;99.90;;;;;;6146862;29;20055;-69
2022/06/16 02:27:01;;;;;;;12.23;7.32;;;12.50;99.90;;;;;;6146450;28;20199;-69
2022/06/16 02:30:03;;;;;;;11.50;7.35;;;12.60;99.90;;;;;;6148050;28;20110;-68
2022/06/16 02:33:12;;;;;;;12.63;6.70;;;12.60;99.90;;;;;;6141077;28;20058;-68
2022/06/16 02:36:27;;;;;;;12.35;6.88;;;12.60;99.90;;;;;;6147434;28;20098;-68
2022/06/16 02:39:43;;;;;;;11.73;5.88;;;12.60;99.90;;;;;;6149347;29;20043;-68
2022/06/16 02:42:56;;;;;;;10.00;6.22;;;12.70;99.90;;;;;;6147749;29;20059;-69
2022/06/16 02:46:04;;;;;;;10.57;5.95;;;12.80;99.90;;;;;;6147774;28;20067;-69
2022/06/16 02:49:16;;;;;;;9.00;6.07;;;12.80;99.90;;;;;;6143878;28;20048;-68
2022/06/16 02:52:27;;;;;;;6.90;5.50;;;12.80;99.90;;;;;;6148336;28;20058;-68
2022/06/16 02:55:34;;;;;;;8.40;4.70;;;12.80;99.90;;;;;;6148019;28;20051;-69
2022/06/16 02:58:39;;;;;;;10.65;4.45;;;12.80;99.90;;;;;;6147549;29;20059;-69
2022/06/16 03:01:41;;;;;;;8.73;4.72;;;12.90;99.90;;;;;;6148944;28;20058;-68
2022/06/16 03:04:47;;;;;;;6.85;4.60;;;12.80;99.90;;;;;;6147420;28;20499;-68
2022/06/16 03:07:49;;;;;;;8.18;4.18;;;12.90;99.90;;;;;;6152688;28;20059;-68
2022/06/16 03:10:54;;;;;;;8.38;4.65;;;12.90;99.90;;;;;;6152041;29;20054;-68
2022/06/16 03:13:57;;;;;;;7.43;4.25;;;12.90;99.90;;;;;;6152642;29;20082;-68
2022/06/16 03:16:59;;;;;;;6.68;3.65;;;12.90;99.90;;;;;;6148175;28;20412;-68
2022/06/16 03:20:02;;;;;;;6.43;3.88;;;12.90;99.90;;;;;;6151949;28;20058;-68
2022/06/16 03:23:04;;;;;;;6.30;4.18;;;12.90;99.90;;;;;;6136755;29;20056;-68
2022/06/16 03:26:06;;;;;;;7.82;3.78;;;12.90;99.90;;;;;;6135588;29;20197;-69
2022/06/16 03:29:08;;;;;;;6.45;4.10;;;12.80;99.90;;;;;;6152825;28;20507;-68
2022/06/16 03:32:10;;;;;;;8.68;4.57;;;12.80;99.90;;;;;;6152072;28;20173;-69
2022/06/16 03:35:14;;;;;;;7.28;4.25;;;12.80;99.90;;;;;;6151395;28;20047;-68
2022/06/16 03:38:19;;;;;;;6.63;4.40;;;12.70;99.90;;;;;;6148484;29;20062;-68
2022/06/16 03:41:21;;;;;;;7.90;4.10;;;12.70;99.90;;;;;;6130055;29;20055;-68
2022/06/16 03:44:22;;;;;;;7.63;3.85;;;12.70;99.90;;;;;;6146804;29;20081;-68
2022/06/16 03:47:24;;;;;;;8.50;3.75;;;12.80;99.90;;;;;;6149096;28;20066;-71
2022/06/16 03:50:28;;;;;;;8.30;3.85;;;12.80;99.90;;;;;;6143173;28;20047;-71
2022/06/16 03:53:30;;;;;;;;;;;12.80;99.90;;;;;;6152097;29;20471;-71
2022/06/16 03:56:31;;;;;;;6.55;3.28;;;12.90;99.90;;;;;;6148611;28;19923;-70
2022/06/16 03:59:33;;;;;;;7.10;3.60;;;13.00;99.90;;;;;;6149749;28;20062;-71
2022/06/16 04:02:35;;;;;;;6.75;3.65;;;13.10;99.90;;;;;;6153002;28;20048;-71
2022/06/16 04:05:40;;;;;;;9.40;3.75;;;13.10;99.90;;;;;;6152748;28;20081;-70
2022/06/16 04:08:42;;;;;;;6.70;3.42;;;13.10;99.90;;;;;;6149071;28;20059;-70
2022/06/16 04:11:44;;;;;;;6.05;3.13;;;13.10;99.90;;;;;;6152660;28;20062;-70
2022/06/16 04:14:46;;;;;;;6.35;3.33;;;13.10;99.90;;;;;;6130715;28;20055;-71
2022/06/16 04:17:48;;;;;;;9.32;4.38;;;13.20;99.90;;;;;;6149341;28;20078;-71
2022/06/16 04:20:51;;;;;;;4.85;3.20;;;13.20;99.90;;;;;;6151798;28;20051;-71
2022/06/16 04:23:53;;;;;;;6.95;3.90;;;13.30;99.90;;;;;;6149085;29;20055;-71
2022/06/16 04:26:57;;;;;;;6.00;3.38;;;13.40;99.90;;;;;;6150220;29;20138;-71
2022/06/16 04:29:59;;;;;;;5.32;3.13;;;13.50;99.90;;;;;;6147253;29;20119;-71
2022/06/16 04:33:01;;;;;;;5.95;3.33;;;13.60;99.90;;;;;;6149698;29;20131;-71
2022/06/16 04:36:05;;;;;;;7.15;3.58;;;13.60;99.90;;;;;;6152691;28;20051;-71
2022/06/16 04:39:07;;;;;;;7.40;3.42;;;13.70;99.90;;;;;;6150597;28;20094;-70
2022/06/16 04:42:09;;;;;;;7.65;3.58;;;13.60;99.90;;;;;;6152045;28;20043;-71
2022/06/16 04:45:12;;;;;;;6.60;3.80;;;13.60;99.90;;;;;;6140812;28;20558;-70
2022/06/16 04:48:14;;;;;;;7.18;3.50;;;13.60;99.90;;;;;;6137700;28;20051;-71
2022/06/16 04:51:17;;;;;;;6.88;3.53;;;13.70;99.90;;;;;;6146344;29;20059;-71
2022/06/16 04:54:19;;;;;;;;;;;13.60;99.90;;;;;;6149326;29;20063;-70
2022/06/16 04:57:22;;;;;;;6.97;3.60;;;13.60;99.90;;;;;;6139072;28;19933;-71
2022/06/16 05:00:24;;;;;;;6.23;3.97;;;13.70;99.90;;;;;;6145185;29;20043;-70
2022/06/16 05:03:28;;;;;;;6.30;3.72;;;13.70;99.90;;;;;;6143476;29;20483;-71
2022/06/16 05:06:31;;;;;;;6.90;3.90;;;13.80;99.90;;;;;;6147286;28;20047;-70
2022/06/16 05:09:34;;;;;;;8.10;3.88;;;13.80;99.90;;;;;;6148750;28;20507;-71
2022/06/16 05:12:36;;;;;;;7.45;4.13;;;13.90;99.90;;;;;;6149491;28;20105;-70
2022/06/16 05:15:38;;;;;;;7.93;4.20;;;14.10;99.90;;;;;;6141692;28;20040;-71
2022/06/16 05:18:40;;;;;;;8.27;3.58;;;14.40;99.90;;;;;;6145919;28;20055;-71
2022/06/16 05:21:43;;;;;;;5.85;3.33;;;14.60;99.90;;;;;;6148780;29;20416;-71
2022/06/16 05:24:45;;;;;;;5.13;3.15;;;14.60;99.90;;;;;;6148196;28;20134;-71
2022/06/16 05:27:48;;;;;;;3.83;2.67;;;14.60;99.90;;;;;;6143854;28;20066;-71
2022/06/16 05:30:50;;;;;;;3.95;1.15;;;14.60;99.90;;;;;;6142920;29;20050;-71
2022/06/16 05:33:52;;;;;;;3.08;1.10;;;14.70;99.90;;;;;;6136508;29;20055;-70
2022/06/16 05:36:55;;;;;;;3.03;1.30;;;15.30;99.90;;;;;;6146278;29;20075;-70
2022/06/16 05:39:57;;;;;;;6.22;2.60;;;15.80;99.90;;;;;;6128749;29;20071;-71
2022/06/16 05:42:59;;;;;;;5.63;2.45;;;16.50;99.90;;;;;;6137676;28;20047;-71
2022/06/16 05:46:01;;;;;;;4.38;2.10;;;16.50;99.90;;;;;;6146691;28;20134;-71
2022/06/16 05:49:03;;;;;;;6.28;3.15;;;16.70;99.90;;;;;;6144979;28;20051;-71
2022/06/16 05:52:09;;;;;;;6.22;2.72;;;16.90;99.90;;;;;;6146338;28;20058;-71
2022/06/16 05:55:12;;;;;;;4.63;2.55;;;16.50;99.90;;;;;;6145867;29;20044;-71
2022/06/16 05:58:13;;;;;;;5.30;2.80;;;16.10;99.90;;;;;;6149595;28;20552;-69
2022/06/16 06:01:16;;;;;;;5.38;2.15;;;15.70;99.90;;;;;;6145039;28;20070;-71
2022/06/16 06:04:17;;;;;;;10.90;3.58;;;15.60;99.90;;;;;;6147825;29;20047;-71
2022/06/16 06:07:21;;;;;;;9.90;2.45;;;15.80;99.90;;;;;;6149384;28;20043;-71
2022/06/16 06:17:03;;;;;;;6.60;2.30;;;15.90;99.90;;;;;;6145323;29;20082;-72
2022/06/16 06:20:05;;;;;;;5.07;1.80;;;15.80;99.90;;;;;;6148221;28;20054;-71
2022/06/16 06:23:09;;;;;;;5.10;1.52;;;15.80;99.90;;;;;;6138193;28;20047;-71
2022/06/16 06:26:13;;;;;;;5.13;2.10;;;15.80;99.90;;;;;;6145544;28;20051;-72
2022/06/16 06:29:15;;;;;;;6.43;2.03;;;15.70;99.90;;;;;;6140653;28;20046;-72
2022/06/16 06:32:19;;;;;;;5.07;1.60;;;15.70;99.90;;;;;;6140023;28;20488;-71
2022/06/16 06:35:21;;;;;;;4.22;1.38;;;15.70;99.90;;;;;;6145881;29;20051;-72
2022/06/16 06:38:24;;;;;;;2.60;1.10;;;15.80;99.90;;;;;;6146466;28;20047;-71
2022/06/16 06:41:26;;;;;;;4.80;1.52;;;16.00;99.90;;;;;;6151252;28;20465;-73
2022/06/16 06:44:28;;;;;;;3.78;1.38;;;15.80;99.90;;;;;;6146638;29;20051;-70
2022/06/16 06:47:32;;;;;;;4.25;1.45;;;15.80;99.90;;;;;;6152232;29;20060;-70
2022/06/16 06:50:34;;;;;;;;;;;15.70;99.90;;;;;;6151421;28;20433;-70
2022/06/16 06:53:38;;;;;;;4.45;1.42;;;15.70;99.90;;;;;;6153186;29;19929;-72
2022/06/16 06:56:40;;;;;;;3.15;1.02;;;16.00;99.90;;;;;;6153550;28;20138;-72
2022/06/16 06:59:42;;;;;;;3.83;1.08;;;16.10;99.90;;;;;;6154170;28;20055;-73
2022/06/16 07:02:44;;;;;;;5.07;1.02;;;16.20;99.90;;;;;;6144040;29;20495;-71
2022/06/16 07:05:46;;;;;;;2.80;1.10;;;16.40;99.90;;;;;;6155043;29;20051;-71
2022/06/16 07:08:50;;;;;;;3.03;1.15;;;16.80;99.90;;;;;;6153579;28;20054;-71
2022/06/16 07:11:52;;;;;;;3.75;1.10;;;17.60;99.90;;;;;;6153019;28;20054;-71
2022/06/16 07:14:54;;;;;;;3.55;1.13;;;18.40;99.90;;;;;;6152696;28;20837;-71
2022/06/16 07:17:56;;;;;;;3.63;1.70;;;19.10;99.90;;;;;;6153679;28;20043;-71
2022/06/16 07:20:57;;;;;;;3.72;1.20;;;19.70;99.90;;;;;;6145250;28;20054;-71
2022/06/16 07:24:01;;;;;;;4.22;1.10;;;20.10;99.90;;;;;;6155052;28;20043;-71
2022/06/16 07:27:04;;;;;;;3.63;0.88;;;20.20;96.00;;;;;;6152353;28;20488;-70
2022/06/16 07:30:13;;;;;;;2.55;0.90;;;20.20;97.60;;;;;;6154780;28;20055;-71
2022/06/16 07:33:15;;;;;;;2.47;1.02;;;20.10;96.70;;;;;;6151399;28;20095;-71
2022/06/16 07:36:17;;;;;;;3.20;1.02;;;20.20;97.50;;;;;;6149730;29;20492;-71
2022/06/16 07:39:20;;;;;;;2.78;0.82;;;20.10;96.30;;;;;;6145965;29;20492;-71
2022/06/16 07:42:22;;;;;;;2.83;1.13;;;19.80;98.30;;;;;;6149402;29;20403;-70
2022/06/16 07:45:25;;;;;;;2.15;0.90;;;19.60;96.90;;;;;;6156595;28;20062;-71
2022/06/16 07:48:27;;;;;;;3.47;1.15;;;19.80;99.90;;;;;;6154625;28;20051;-71
2022/06/16 07:51:29;;;;;;;3.53;0.80;;;20.10;99.50;;;;;;6151372;28;20051;-71
2022/06/16 07:54:32;;;;;;;3.42;1.00;;;20.40;96.50;;;;;;6146707;28;20062;-71
2022/06/16 07:57:41;;;;;;;2.67;0.98;;;20.30;98.00;;;;;;6147849;29;20055;-71
2022/06/16 08:00:43;;;;;;;2.20;1.17;;;20.30;95.80;;;;;;6141456;29;20522;-71
2022/06/16 08:03:45;;;;;;;3.60;0.90;;;20.20;97.60;;;;;;6138701;29;20290;-70
2022/06/16 08:06:47;;;;;;;1.67;0.90;;;19.90;97.20;;;;;;6147013;29;20477;-71
2022/06/16 08:09:50;;;;;;;2.97;1.02;;;20.10;99.90;;;;;;6150555;28;20051;-71
2022/06/16 08:12:52;;;;;;;4.93;1.00;;;20.30;95.40;;;;;;6128347;29;20062;-70
2022/06/16 08:15:55;;;;;;;4.40;0.93;;;20.20;95.50;;;;;;6127145;29;20055;-71
2022/06/16 08:18:57;;;;;;;6.30;1.40;;;20.00;95.60;;;;;;6128166;29;20078;-71
2022/06/16 08:21:59;;;;;;;2.90;0.93;;;19.70;96.60;;;;;;6146398;28;20047;-71
2022/06/16 08:25:02;;;;;;;4.68;1.30;;;20.00;96.50;;;;;;6151132;28;20043;-71
2022/06/16 08:28:07;;;;;;;1.58;1.02;;;20.10;97.20;;;;;;6147266;28;20047;-71
2022/06/16 08:31:09;;;;;;;2.15;0.98;;;20.20;97.00;;;;;;6147654;28;20067;-71
2022/06/16 08:34:12;;;;;;;5.13;1.40;;;19.70;97.80;;;;;;6154068;28;20063;-70
2022/06/16 08:37:14;;;;;;;3.23;1.37;;;19.70;98.50;;;;;;6144764;29;20059;-71
2022/06/16 08:40:20;;;;;;;3.13;1.10;;;19.70;98.20;;;;;;6145722;28;20504;-70
2022/06/16 08:43:28;;;;;;;3.80;1.48;;;20.00;96.90;;;;;;6150606;28;20413;-70
2022/06/16 08:46:35;;;;;;;4.82;1.48;;;20.00;96.70;;;;;;6148052;28;20531;-71
2022/06/16 08:49:47;;;;;;;3.20;1.20;;;19.90;96.20;;;;;;6146220;28;20058;-71
2022/06/16 08:52:58;;;;;;;3.60;1.05;;;20.20;98.20;;;;;;6142987;28;20765;-71
2022/06/16 08:56:05;;;;;;;4.82;1.25;;;19.50;94.80;;;;;;6151458;28;20405;-71
2022/06/16 08:59:17;;;;;;;3.70;1.10;;;19.20;96.70;;;;;;6150758;28;20062;-72
2022/06/16 09:02:28;;;;;;;4.55;1.60;;;19.10;98.00;;;;;;6138787;28;20142;-70
2022/06/16 09:05:40;;;;;;;3.63;1.60;;;19.20;97.90;;;;;;6126655;29;20048;-71
2022/06/16 09:08:55;;;;;;;5.75;1.80;;;19.30;97.90;;;;;;6142247;29;20054;-71
2022/06/16 09:12:05;;;;;;;3.60;1.60;;;19.10;97.70;;;;;;6151600;28;20176;-71
2022/06/16 09:15:17;;;;;;;4.25;1.70;;;19.20;99.30;;;;;;6149773;29;20058;-71
2022/06/16 09:18:35;;;;;;;3.58;1.30;;;19.20;98.20;;;;;;6146706;28;20051;-71
2022/06/16 09:21:49;;;;;;;2.28;0.80;;;19.30;98.40;;;;;;6126143;29;20052;-71
2022/06/16 09:24:56;;;;;;;;;;;19.50;99.90;;;;;;6132132;29;20047;-71
2022/06/16 09:28:04;;;;;;;1.67;0.90;;;19.90;99.90;;;;;;6149551;28;20307;-71
2022/06/16 09:31:13;;;;;;;2.88;0.77;;;20.20;99.90;;;;;;6143349;28;20048;-70
2022/06/16 09:34:21;;;;;;;2.67;1.10;;;20.80;99.90;;;;;;6148043;29;20062;-71
2022/06/16 09:37:28;;;;;;;2.45;1.52;;;21.20;99.90;;;;;;6150547;28;20047;-71
2022/06/16 09:40:40;;;;;;;2.95;1.70;;;21.20;97.20;;;;;;6129725;29;20058;-71
2022/06/16 09:43:46;;;;;;;4.28;1.70;;;20.70;97.10;;;;;;6139538;29;20044;-71
2022/06/16 09:46:51;;;;;;;3.90;1.80;;;20.70;97.10;;;;;;6148840;28;20055;-70
2022/06/16 09:49:59;;;;;;;2.05;1.08;;;20.30;97.10;;;;;;6147129;28;20085;-70
2022/06/16 09:53:08;;;;;;;4.18;1.45;;;20.50;98.10;;;;;;6139791;29;20090;-71
2022/06/16 09:56:13;;;;;;;1.73;1.20;;;20.50;97.70;;;;;;6134291;28;20497;-71
2022/06/16 09:59:22;;;;;;;3.85;2.00;;;20.90;99.60;;;;;;6141752;28;20054;-71
2022/06/16 10:02:29;;;;;;;4.50;1.65;;;21.30;98.40;;;;;;6145671;28;20055;-71
2022/06/16 10:05:51;;;;;;;4.50;1.95;;;21.60;97.50;;;;;;6142324;28;20051;-71
2022/06/16 10:09:00;;;;;;;6.22;2.30;;;21.40;97.40;;;;;;6140110;28;20054;-70
2022/06/16 10:12:10;;;;;;;7.72;2.33;;;20.90;96.70;;;;;;6132737;28;20052;-70
2022/06/16 10:15:20;;;;;;;3.80;1.73;;;20.80;97.70;;;;;;6143594;28;20537;-69
2022/06/16 10:18:22;;;;;;;4.82;1.75;;;20.70;97.80;;;;;;6149197;28;20062;-70
2022/06/16 10:21:24;;;;;;;8.00;3.42;;;20.70;98.00;;;;;;6144185;28;20416;-69
2022/06/16 10:24:34;;;;;;;4.65;2.22;;;20.90;97.30;;;;;;6145920;28;20047;-70
2022/06/16 10:27:41;;;;;;;6.15;2.60;;;20.90;97.00;;;;;;6141034;29;20055;-69
2022/06/16 10:30:45;;;;;;;6.45;2.42;;;20.70;98.00;;;;;;6146903;28;20111;-69
2022/06/16 10:33:57;;;;;;;5.97;3.00;;;20.70;97.70;;;;;;6142155;28;20519;-69
2022/06/16 10:37:05;;;;;;;4.93;2.53;;;20.70;98.70;;;;;;6143683;29;20062;-70
2022/06/16 10:40:11;;;;;;;4.80;2.53;;;20.90;98.70;;;;;;6144187;29;20493;-71
2022/06/16 10:43:16;;;;;;;4.70;2.63;;;21.20;98.30;;;;;;6143039;28;20047;-70
2022/06/16 10:46:23;;;;;;;6.68;2.28;;;21.20;97.00;;;;;;6139846;28;20048;-70
2022/06/16 10:49:29;;;;;;;9.00;2.95;;;21.20;97.10;;;;;;6146681;29;20055;-70
2022/06/16 10:52:35;;;;;;;4.13;1.85;;;21.20;96.90;;;;;;6138155;28;20047;-70
2022/06/16 10:55:42;;;;;;;4.78;2.10;;;21.30;97.20;;;;;;6141271;28;20075;-70
2022/06/16 10:58:48;;;;;;;4.80;2.25;;;21.50;96.40;;;;;;6138220;28;20036;-70
2022/06/16 11:01:55;;;;;;;5.53;2.60;;;21.50;95.90;;;;;;6132664;28;20070;-71
2022/06/16 11:05:00;;;;;;;3.88;2.50;;;21.50;95.30;;;;;;6144383;29;20144;-71
2022/06/16 11:08:08;;;;;;;3.92;1.80;;;21.60;94.60;;;;;;6142310;29;20050;-69
2022/06/16 11:11:11;;;;;;;6.43;3.42;;;21.70;95.00;;;;;;6139483;29;20408;-70
2022/06/16 11:14:16;;;;;;;3.00;2.27;;;21.40;94.10;;;;;;6139694;29;20080;-70
2022/06/16 11:17:23;;;;;;;4.78;2.40;;;21.40;95.60;;;;;;6146353;28;20409;-68
2022/06/16 11:20:34;;;;;;;3.80;2.03;;;21.50;94.20;;;;;;6141609;29;20043;-69
2022/06/16 11:23:44;;;;;;;5.75;2.80;;;21.80;96.20;;;;;;6143165;28;20059;-70
2022/06/16 11:26:46;;;;;;;5.25;2.83;;;21.90;93.30;;;;;;6149165;28;20508;-70
2022/06/16 11:29:48;;;;;;;5.15;3.67;;;21.80;93.80;;;;;;6143529;28;20047;-69
2022/06/16 11:32:52;;;;;;;6.15;2.60;;;21.90;94.50;;;;;;6148502;29;20043;-70
2022/06/16 11:35:58;;;;;;;4.15;2.70;;;21.70;93.40;;;;;;6148812;28;20058;-70
2022/06/16 11:39:09;;;;;;;6.63;2.45;;;21.40;92.90;;;;;;6147834;29;20059;-69
2022/06/16 11:42:21;;;;;;;3.38;2.22;;;21.30;94.30;;;;;;6148258;29;20463;-69
2022/06/16 11:45:31;;;;;;;5.65;2.40;;;21.50;93.80;;;;;;6147176;29;20424;-70
2022/06/16 11:48:40;;;;;;;4.95;2.60;;;21.50;94.00;;;;;;6145202;29;20055;-70
2022/06/16 11:51:49;;;;;;;4.07;2.97;;;21.50;94.10;;;;;;6147126;28;20493;-70
2022/06/16 11:55:01;;;;;;;3.78;2.58;;;21.60;93.40;;;;;;6145289;28;20047;-69
2022/06/16 11:58:21;;;;;;;5.95;2.90;;;21.90;93.60;;;;;;6147520;29;20055;-70
2022/06/16 12:01:30;;;;;;;5.35;3.22;;;22.00;93.30;;;;;;6150879;28;20183;-70
2022/06/16 12:04:58;;;;;;;4.85;3.08;;;21.50;93.10;;;;;;6149558;28;20043;-70
2022/06/16 12:08:21;;;;;;;3.10;2.58;;;21.50;93.70;;;;;;6144924;28;20051;-70
2022/06/16 12:11:34;;;;;;;4.28;2.70;;;21.50;93.90;;;;;;6145254;28;20691;-70
2022/06/16 12:14:45;;;;;;;7.22;3.40;;;21.70;94.70;;;;;;6145637;28;20047;-70
2022/06/16 12:17:54;;;;;;;6.85;3.20;;;21.60;93.40;;;;;;6161367;28;20047;-70
2022/06/16 12:21:09;;;;;;;6.78;3.35;;;21.60;93.60;;;;;;6149406;28;20051;-69
2022/06/16 12:24:20;;;;;;;7.07;2.97;;;21.70;93.90;;;;;;6150494;28;20052;-70
2022/06/16 12:27:28;;;;;;;6.95;3.05;;;21.80;93.30;;;;;;6151347;28;20436;-69
2022/06/16 12:30:37;;;;;;;5.38;3.05;;;21.70;92.90;;;;;;6145275;28;20089;-69
2022/06/16 12:33:46;;;;;;;6.45;3.10;;;21.30;93.60;;;;;;6149567;28;20488;-69
2022/06/16 12:36:53;;;;;;;3.70;2.03;;;21.50;94.70;;;;;;6152496;28;20047;-71
2022/06/16 12:40:02;;;;;;;5.55;2.70;;;21.90;95.20;;;;;;6140797;28;20044;-69
2022/06/16 12:43:08;;;;;;;6.53;3.88;;;22.30;94.10;;;;;;6147686;29;20051;-69
2022/06/16 12:46:15;;;;;;;5.28;2.67;;;22.20;93.50;;;;;;6150692;28;20047;-69
2022/06/16 12:49:25;;;;;;;7.97;2.83;;;22.30;93.50;;;;;;6144962;28;20507;-70
2022/06/16 12:52:35;;;;;;;5.30;2.60;;;22.50;94.40;;;;;;6151546;28;20082;-71
2022/06/16 12:55:43;;;;;;;3.65;1.95;;;22.10;94.00;;;;;;6149821;29;20511;-71
2022/06/16 12:58:50;;;;;;;5.80;3.72;;;22.30;94.90;;;;;;6150050;28;20059;-70
2022/06/16 13:01:57;;;;;;;5.55;2.38;;;22.50;93.30;;;;;;6129830;29;20055;-70
2022/06/16 13:05:00;;;;;;;4.45;2.15;;;22.10;93.60;;;;;;6135404;28;20513;-70
2022/06/16 13:08:05;;;;;;;6.25;2.25;;;22.20;93.30;;;;;;6142168;29;20050;-70
2022/06/16 13:11:13;;;;;;;4.25;2.55;;;22.10;93.50;;;;;;6150630;28;20070;-71
2022/06/16 13:14:22;;;;;;;5.80;2.53;;;22.20;92.60;;;;;;6138778;29;20054;-70
2022/06/16 13:17:27;;;;;;;4.25;2.40;;;22.30;92.90;;;;;;6134033;29;20111;-71
2022/06/16 13:20:33;;;;;;;3.50;1.92;;;22.60;93.70;;;;;;6143678;28;20125;-70
2022/06/16 13:23:38;;;;;;;5.93;2.38;;;22.60;92.20;;;;;;6138054;28;20078;-70
2022/06/16 13:26:42;;;;;;;3.17;2.22;;;22.20;92.10;;;;;;6125285;29;20047;-70
2022/06/16 13:30:15;;;;;;;4.55;2.30;;;21.90;92.60;;;;;;6127272;29;20386;-70
2022/06/16 13:33:30;;;;;;;4.25;2.35;;;21.90;93.20;;;;;;6130239;28;20054;-71
2022/06/16 13:36:47;;;;;;;3.08;1.85;;;21.90;92.50;;;;;;6138497;29;20055;-72
2022/06/16 13:40:15;;;;;;;3.80;1.90;;;21.90;92.60;;;;;;6137244;29;20059;-71
2022/06/16 13:43:18;;;;;;;7.60;2.30;;;21.90;92.90;;;;;;6134346;29;20047;-70
2022/06/16 13:46:20;;;;;;;;;;;22.00;93.60;;;;;;6137207;28;20043;-71
2022/06/16 13:49:28;;;;;;;3.08;1.80;;;22.20;92.10;;;;;;6134888;28;19930;-71
2022/06/16 13:52:34;;;;;;;6.97;2.20;;;21.80;92.30;;;;;;6130702;29;20412;-71
2022/06/16 13:55:43;;;;;;;4.40;2.53;;;21.90;93.20;;;;;;6140455;29;20613;-70
2022/06/16 13:59:24;;;;;;;3.53;1.90;;;22.00;93.00;;;;;;6137228;29;20055;-71
2022/06/16 14:02:27;;;;;;;3.55;1.88;;;22.00;92.90;;;;;;6140580;28;20191;-71
2022/06/16 14:05:32;;;;;;;3.17;1.70;;;21.60;92.80;;;;;;6149776;28;20054;-70
2022/06/16 14:08:36;;;;;;;4.60;2.17;;;21.70;93.70;;;;;;6138102;29;20496;-70
2022/06/16 14:11:45;;;;;;;4.57;2.45;;;21.90;94.10;;;;;;6145869;29;20508;-70
2022/06/16 14:15:05;;;;;;;6.82;2.72;;;22.00;93.50;;;;;;6146503;28;20055;-70
2022/06/16 14:18:19;;;;;;;5.28;2.78;;;22.20;94.20;;;;;;6144540;29;20066;-71
2022/06/16 14:21:26;;;;;;;5.40;2.00;;;22.40;93.70;;;;;;6139230;28;20448;-71
2022/06/16 14:24:51;;;;;;;4.80;2.40;;;22.50;93.40;;;;;;6139224;28;20055;-71
2022/06/16 14:27:57;;;;;;;6.20;2.85;;;22.50;93.20;;;;;;6144252;28;20513;-70
2022/06/16 14:31:02;;;;;;;4.93;2.60;;;22.50;92.90;;;;;;6138052;29;20101;-70
2022/06/16 14:34:10;;;;;;;5.68;2.63;;;22.40;93.10;;;;;;6144015;28;21202;-71
2022/06/16 14:37:18;;;;;;;5.65;2.10;;;22.50;92.50;;;;;;6147484;29;20050;-70
2022/06/16 14:40:24;;;;;;;4.55;2.20;;;22.60;92.60;;;;;;6147390;28;20485;-71
2022/06/16 14:43:32;;;;;;;5.07;2.45;;;22.70;92.20;;;;;;6140948;29;20047;-71
2022/06/16 14:46:44;;;;;;;4.30;2.20;;;22.60;92.40;;;;;;6144148;29;20069;-71
2022/06/16 14:49:51;;;;;;;7.15;2.47;;;22.00;92.70;;;;;;6142889;29;20054;-71
2022/06/16 14:52:57;;;;;;;3.35;2.20;;;21.90;93.40;;;;;;6144362;29;20052;-71
2022/06/16 14:56:09;;;;;;;4.53;2.20;;;21.90;93.30;;;;;;6141711;28;20051;-71
2022/06/16 14:59:18;;;;;;;3.90;1.95;;;22.10;93.20;;;;;;6139968;29;20043;-72
2022/06/16 15:02:24;;;;;;;4.03;2.28;;;22.00;92.80;;;;;;6143133;28;20046;-70
2022/06/16 15:05:27;;;;;;;4.65;2.22;;;22.00;93.20;;;;;;6130662;29;20066;-70
2022/06/16 15:08:30;;;;;;;2.85;1.75;;;21.90;93.60;;;;;;6142661;28;20195;-70
2022/06/16 15:11:35;;;;;;;3.45;2.08;;;21.70;93.40;;;;;;6147225;29;20069;-69
2022/06/16 15:14:41;;;;;;;5.88;2.20;;;21.60;93.50;;;;;;6147257;29;20130;-70
2022/06/16 15:21:09;;;;;;;5.55;2.30;;;21.30;93.90;;;;;;6149947;29;20526;-69
2022/06/16 15:24:11;;;;;;;5.00;2.30;;;21.50;94.30;;;;;;6128707;29;20059;-71
2022/06/16 15:27:13;;;;;;;6.57;2.60;;;21.30;93.40;;;;;;6140246;29;20480;-69
2022/06/16 15:30:26;;;;;;;7.25;2.40;;;21.20;93.30;;;;;;6144224;29;20047;-71
2022/06/16 15:36:48;;;;;;;4.03;2.10;;;21.00;93.90;;;;;;6143171;28;20050;-68
2022/06/16 15:39:52;;;;;;;4.20;2.23;;;21.00;94.00;;;;;;6151971;28;20051;-70
2022/06/16 15:42:55;;;;;;;4.68;2.10;;;20.90;94.20;;;;;;6151752;28;20487;-70
2022/06/16 15:46:03;;;;;;;4.22;2.13;;;21.10;94.20;;;;;;6151320;29;20050;-71
2022/06/16 15:49:05;;;;;;;4.32;2.00;;;20.80;93.90;;;;;;6148536;28;20077;-70
2022/06/16 15:52:16;;;;;;;2.78;1.80;;;21.10;94.20;;;;;;6149777;29;20054;-71
2022/06/16 15:55:21;;;;;;;2.83;1.75;;;21.10;93.70;;;;;;6150547;29;20055;-70
2022/06/16 15:58:26;;;;;;;4.70;2.00;;;20.70;93.60;;;;;;6140543;29;20110;-69
2022/06/16 16:01:31;;;;;;;4.45;1.92;;;20.70;94.20;;;;;;6149972;29;20051;-69
2022/06/16 16:04:33;;;;;;;5.80;2.47;;;20.70;94.30;;;;;;6152007;29;20043;-69
2022/06/16 16:07:37;;;;;;;4.13;2.03;;;20.70;94.40;;;;;;6149095;28;20054;-69
2022/06/16 16:10:39;;;;;;;5.03;1.98;;;20.60;94.10;;;;;;6151840;28;20062;-70
2022/06/16 16:13:55;;;;;;;4.07;2.05;;;20.80;93.90;;;;;;6148912;28;20486;-69
2022/06/16 16:17:04;;;;;;;3.90;2.22;;;20.80;94.30;;;;;;6140580;28;20044;-68
2022/06/16 16:20:07;;;;;;;5.70;2.20;;;20.90;93.90;;;;;;6150409;28;20078;-69
2022/06/16 16:23:16;;;;;;;4.20;2.20;;;20.90;94.30;;;;;;6148165;28;20515;-68